Time;durP1;ratioP1;P1;durP2;ratioP2;P2;SDS_P1;SDS_P2;PMS_P1;PMS_P2;Temp;Humidity;BMP_temperature;BMP_pressure;BME280_temperature;BME280_humidity;BME280_pressure;Samples;Min_cycle;Max_cycle;Signal;HPM_P1;HPM_P2
2023/04/23 00:01:01;;;;;;;15.10;10.57;;;14.40;1.00;;;;;;5137334;28;20495;-82
2023/04/23 00:03:31;;;;;;;13.93;11.37;;;14.50;99.90;;;;;;5130693;28;20432;-82
2023/04/23 00:05:59;;;;;;;11.97;10.73;;;14.50;99.90;;;;;;5130314;28;20428;-83
2023/04/23 00:08:27;;;;;;;12.13;10.90;;;14.50;99.90;;;;;;5128722;28;20498;-82
2023/04/23 00:10:54;;;;;;;13.37;10.53;;;14.50;99.90;;;;;;5128886;28;20479;-83
2023/04/23 00:13:21;;;;;;;13.17;11.20;;;14.40;99.90;;;;;;5129080;28;20494;-83
2023/04/23 00:15:50;;;;;;;11.70;10.60;;;14.50;99.90;;;;;;5129175;28;20507;-84
2023/04/23 00:18:18;;;;;;;13.83;11.20;;;14.40;99.90;;;;;;5134892;28;20455;-82
2023/04/23 00:20:45;;;;;;;11.90;10.47;;;14.40;99.90;;;;;;5134364;28;20432;-83
2023/04/23 00:23:12;;;;;;;14.13;10.67;;;14.50;99.90;;;;;;5134930;28;20946;-83
2023/04/23 00:25:38;;;;;;;11.03;9.90;;;14.80;1.00;;;;;;5129628;28;20475;-83
2023/04/23 00:28:05;;;;;;;12.20;11.07;;;14.30;1.00;;;;;;5129977;28;20534;-83
2023/04/23 00:30:33;;;;;;;14.80;11.13;;;14.30;99.90;;;;;;5128694;28;20858;-83
2023/04/23 00:33:01;;;;;;;16.03;12.17;;;14.30;99.90;;;;;;5128897;28;20499;-82
2023/04/23 00:35:28;;;;;;;13.03;10.90;;;14.30;99.90;;;;;;5132497;28;20506;-82
2023/04/23 00:37:55;;;;;;;10.67;9.57;;;14.40;99.90;;;;;;5131826;28;20450;-82
2023/04/23 00:40:22;;;;;;;11.90;10.60;;;14.30;99.90;;;;;;5129615;28;21006;-82
2023/04/23 00:42:51;;;;;;;11.13;10.03;;;14.50;99.90;;;;;;5123519;28;20569;-82
2023/04/23 00:45:18;;;;;;;12.00;10.70;;;14.50;99.90;;;;;;5121881;28;20457;-82
2023/04/23 00:47:45;;;;;;;12.10;10.70;;;14.50;99.90;;;;;;5121680;28;20448;-82
2023/04/23 00:50:13;;;;;;;10.93;9.93;;;14.50;99.90;;;;;;5121584;28;20535;-81
2023/04/23 00:52:40;;;;;;;12.83;11.53;;;14.50;99.90;;;;;;5121562;28;20617;-82
2023/04/23 00:55:08;;;;;;;11.90;10.70;;;14.40;99.90;;;;;;5120302;28;20443;-82
2023/04/23 00:57:36;;;;;;;13.70;10.53;;;14.50;99.90;;;;;;5120560;28;20527;-82
2023/04/23 01:00:04;;;;;;;17.20;11.13;;;14.40;99.90;;;;;;5121817;28;20472;-81
2023/04/23 01:02:31;;;;;;;12.60;11.40;;;14.40;99.90;;;;;;5134608;28;20427;-80
2023/04/23 01:04:59;;;;;;;13.20;10.93;;;14.40;99.90;;;;;;5138331;28;20442;-81
2023/04/23 01:07:28;;;;;;;12.27;11.00;;;14.40;99.90;;;;;;5123618;28;20456;-82
2023/04/23 01:09:55;;;;;;;13.87;11.03;;;14.40;99.90;;;;;;5124902;28;20498;-82
2023/04/23 01:12:23;;;;;;;12.83;11.37;;;14.40;99.90;;;;;;5125578;28;20489;-81
2023/04/23 01:14:50;;;;;;;12.17;10.93;;;14.30;99.90;;;;;;5124995;28;20470;-81
2023/04/23 01:17:17;;;;;;;13.10;10.57;;;14.30;99.90;;;;;;5122496;28;20439;-81
2023/04/23 01:19:43;;;;;;;12.10;10.90;;;14.30;99.90;;;;;;5121686;28;20531;-81
2023/04/23 01:22:12;;;;;;;12.60;11.30;;;14.30;99.90;;;;;;5123077;28;20929;-81
2023/04/23 01:24:41;;;;;;;13.93;12.37;;;14.20;99.90;;;;;;5122405;28;21063;-81
2023/04/23 01:27:08;;;;;;;12.27;11.07;;;14.20;99.90;;;;;;5133258;28;20457;-82
2023/04/23 01:29:35;;;;;;;12.47;11.17;;;14.20;99.90;;;;;;5134347;28;20463;-81
2023/04/23 01:32:02;;;;;;;14.10;10.67;;;14.20;99.90;;;;;;5125752;28;20479;-81
2023/04/23 01:34:30;;;;;;;12.37;11.27;;;14.20;99.90;;;;;;5130318;28;20448;-81
2023/04/23 01:36:58;;;;;;;11.87;10.63;;;14.20;99.90;;;;;;5128485;28;20447;-82
2023/04/23 01:39:26;;;;;;;15.57;11.63;;;14.10;99.90;;;;;;5123002;28;20471;-81
2023/04/23 01:41:54;;;;;;;12.93;10.30;;;14.30;1.00;;;;;;5122390;28;20450;-82
2023/04/23 01:44:21;;;;;;;12.80;11.60;;;14.10;99.90;;;;;;5126777;28;20969;-82
2023/04/23 01:46:48;;;;;;;12.80;11.50;;;14.10;99.90;;;;;;5125977;28;20452;-81
2023/04/23 01:49:15;;;;;;;13.00;11.80;;;14.10;99.90;;;;;;5123237;28;20510;-81
2023/04/23 01:51:43;;;;;;;16.17;11.30;;;14.10;99.90;;;;;;5127698;28;20475;-81
2023/04/23 01:54:09;;;;;;;11.90;10.80;;;14.10;99.90;;;;;;5140066;28;20459;-80
2023/04/23 01:56:38;;;;;;;11.13;10.10;;;14.10;99.90;;;;;;5140051;28;20435;-78
2023/04/23 01:59:06;;;;;;;12.93;11.40;;;14.10;99.90;;;;;;5140090;28;20474;-79
2023/04/23 02:01:42;;;;;;;12.80;11.60;;;14.10;99.90;;;;;;5139541;28;20416;-79
2023/04/23 02:04:10;;;;;;;14.20;11.50;;;14.10;99.90;;;;;;5139272;28;20441;-80
2023/04/23 02:06:37;;;;;;;12.73;11.40;;;14.00;99.90;;;;;;5129346;28;20443;-81
2023/04/23 02:09:04;;;;;;;14.50;11.57;;;14.00;99.90;;;;;;5121556;28;20467;-80
2023/04/23 02:11:31;;;;;;;15.67;12.80;;;14.00;1.00;;;;;;5121069;28;20511;-80
2023/04/23 02:13:59;;;;;;;12.90;11.60;;;14.00;99.90;;;;;;5138290;22;20521;-87
2023/04/23 02:16:27;;;;;;;13.93;12.67;;;13.90;1.00;;;;;;5079537;28;20459;-88
2023/04/23 02:18:54;;;;;;;22.00;14.17;;;13.70;1.00;;;;;;5076767;28;20495;-88
2023/04/23 02:21:21;;;;;;;21.60;16.23;;;13.40;99.90;;;;;;5079014;28;20447;-87
2023/04/23 02:23:47;;;;;;;21.30;16.30;;;13.20;1.00;;;;;;5076898;28;20475;-88
2023/04/23 02:26:14;;;;;;;19.20;17.17;;;13.00;1.00;;;;;;5077094;28;20975;-87
2023/04/23 02:28:41;;;;;;;21.37;16.27;;;12.80;99.90;;;;;;5076703;28;20464;-88
2023/04/23 02:31:09;;;;;;;18.20;16.30;;;12.50;1.00;;;;;;5077681;28;20516;-87
2023/04/23 02:33:36;;;;;;;21.37;16.80;;;12.60;99.90;;;;;;5077518;28;20479;-87
2023/04/23 02:36:03;;;;;;;17.67;15.87;;;12.70;1.00;;;;;;5077714;28;20539;-87
2023/04/23 02:38:30;;;;;;;21.57;18.13;;;;;;;;;;5077884;28;20521;-87
2023/04/23 02:40:57;;;;;;;27.37;16.90;;;12.50;99.90;;;;;;5076952;28;20452;-87
2023/04/23 02:43:24;;;;;;;19.73;16.47;;;12.50;1.00;;;;;;5077533;28;20532;-87
2023/04/23 02:45:51;;;;;;;18.20;14.80;;;12.50;22.90;;;;;;5077597;28;20544;-86
2023/04/23 02:48:20;;;;;;;20.60;15.60;;;12.50;99.90;;;;;;5098226;28;20449;-90
2023/04/23 02:50:47;;;;;;;18.87;16.97;;;12.50;99.90;;;;;;5097942;28;20445;-87
2023/04/23 02:53:13;;;;;;;20.27;16.97;;;12.60;99.90;;;;;;5088235;28;20851;-87
2023/04/23 02:55:40;;;;;;;21.67;17.00;;;12.60;99.90;;;;;;5078028;28;20453;-86
2023/04/23 02:58:07;;;;;;;17.30;15.63;;;12.60;1.00;;;;;;5077455;28;20532;-87
2023/04/23 03:00:34;;;;;;;20.83;15.53;;;12.70;1.00;;;;;;5076611;28;20535;-88
2023/04/23 03:03:01;;;;;;;19.90;16.90;;;12.50;1.00;;;;;;5077001;28;20449;-87
2023/04/23 03:05:29;;;;;;;16.33;14.83;;;12.60;1.00;;;;;;5077722;28;20529;-87
2023/04/23 03:07:56;;;;;;;20.53;16.50;;;12.60;99.90;;;;;;5077884;28;20445;-86
2023/04/23 03:10:23;;;;;;;19.67;17.50;;;12.60;99.90;;;;;;5077513;28;20449;-86
2023/04/23 03:12:49;;;;;;;19.77;17.77;;;12.80;1.00;;;;;;5077572;28;20507;-86
2023/04/23 03:15:16;;;;;;;19.90;17.80;;;12.60;99.90;;;;;;5077701;28;20463;-87
2023/04/23 03:17:43;;;;;;;20.07;17.97;;;12.70;1.00;;;;;;5077495;28;20528;-87
2023/04/23 03:20:11;;;;;;;20.47;18.37;;;12.70;99.90;;;;;;5076295;28;20453;-87
2023/04/23 03:22:39;;;;;;;21.80;19.50;;;12.70;99.90;;;;;;5077210;28;20796;-86
2023/04/23 03:25:07;;;;;;;26.10;20.80;;;12.50;99.90;;;;;;5079879;28;20473;-88
2023/04/23 03:27:35;;;;;;;26.67;23.80;;;12.70;99.90;;;;;;5083366;28;20460;-88
2023/04/23 03:30:02;;;;;;;36.90;28.27;;;12.60;99.90;;;;;;5078551;28;20885;-88
2023/04/23 03:32:29;;;;;;;22.43;20.03;;;12.60;99.90;;;;;;5077588;28;20484;-87
2023/04/23 03:34:56;;;;;;;21.90;19.50;;;12.50;1.00;;;;;;5077457;28;20479;-87
2023/04/23 03:37:23;;;;;;;24.07;21.57;;;12.50;1.00;;;;;;5077897;28;20475;-89
2023/04/23 03:39:51;;;;;;;20.27;18.23;;;12.50;1.00;;;;;;5078117;28;20898;-87
2023/04/23 03:42:18;;;;;;;21.10;19.00;;;12.30;87.80;;;;;;5077868;28;20481;-88
2023/04/23 03:44:45;;;;;;;19.57;17.60;;;12.40;99.90;;;;;;5076733;28;20894;-88
2023/04/23 03:47:11;;;;;;;22.23;19.83;;;12.40;99.90;;;;;;5077475;28;20536;-88
2023/04/23 03:49:39;;;;;;;19.50;17.50;;;12.50;99.90;;;;;;5076588;28;20449;-88
2023/04/23 03:52:06;;;;;;;24.87;22.17;;;12.50;99.90;;;;;;5076470;28;20470;-88
2023/04/23 03:54:32;;;;;;;23.47;19.90;;;12.50;99.90;;;;;;5081614;28;20469;-88
2023/04/23 03:57:01;;;;;;;20.80;18.80;;;12.50;99.90;;;;;;5090504;28;20516;-87
2023/04/23 03:59:28;;;;;;;21.63;19.40;;;12.60;99.90;;;;;;5091667;28;20484;-88
2023/04/23 04:01:55;;;;;;;22.33;19.00;;;12.30;99.90;;;;;;5090945;28;20457;-90
2023/04/23 04:04:21;;;;;;;22.30;19.77;;;12.50;99.90;;;;;;5094132;28;20481;-87
2023/04/23 04:06:48;;;;;;;22.53;20.23;;;12.60;99.90;;;;;;5100596;28;20444;-87
2023/04/23 04:09:15;;;;;;;24.60;20.67;;;12.50;99.90;;;;;;5099324;28;20556;-87
2023/04/23 04:11:42;;;;;;;22.90;20.60;;;12.50;99.90;;;;;;5096914;28;20499;-87
2023/04/23 04:14:10;;;;;;;22.20;19.33;;;12.50;99.90;;;;;;5095339;28;20493;-87
2023/04/23 04:16:37;;;;;;;24.17;20.00;;;12.60;99.90;;;;;;5082076;28;20445;-87
2023/04/23 04:19:04;;;;;;;37.20;22.70;;;12.60;99.90;;;;;;5081012;28;20445;-87
2023/04/23 04:21:32;;;;;;;20.13;17.10;;;12.70;99.90;;;;;;5079566;28;20479;-87
2023/04/23 04:24:00;;;;;;;27.60;22.03;;;12.80;99.90;;;;;;5079207;28;20469;-87
2023/04/23 04:26:27;;;;;;;34.93;26.00;;;12.90;99.90;;;;;;5078981;28;20548;-87
2023/04/23 04:28:54;;;;;;;22.47;18.00;;;13.00;99.90;;;;;;5079270;28;20456;-86
2023/04/23 04:31:22;;;;;;;17.57;15.67;;;13.10;1.00;;;;;;5080886;28;20441;-87
2023/04/23 04:33:49;;;;;;;18.77;15.43;;;13.20;1.00;;;;;;5081555;28;20457;-88
2023/04/23 04:36:17;;;;;;;18.23;15.47;;;13.20;1.00;;;;;;5079312;28;20459;-88
2023/04/23 04:38:43;;;;;;;18.57;16.70;;;13.20;1.00;;;;;;5078774;28;21016;-88
2023/04/23 04:41:10;;;;;;;17.43;15.27;;;13.30;1.00;;;;;;5089540;28;20448;-90
2023/04/23 04:43:37;;;;;;;18.97;15.87;;;12.90;1.00;;;;;;5101094;28;20501;-91
2023/04/23 04:46:04;;;;;;;18.47;15.33;;;13.20;1.00;;;;;;5100947;28;20468;-91
2023/04/23 04:48:32;;;;;;;17.67;15.37;;;13.10;1.00;;;;;;5093040;28;20556;-88
2023/04/23 04:50:59;;;;;;;17.30;15.50;;;13.20;1.00;;;;;;5079453;28;20441;-88
2023/04/23 04:53:26;;;;;;;16.47;14.80;;;13.30;1.00;;;;;;5078784;28;20485;-88
2023/04/23 04:55:53;;;;;;;18.43;15.70;;;13.30;1.00;;;;;;5078927;28;20885;-87
2023/04/23 04:58:20;;;;;;;17.57;15.77;;;13.30;99.90;;;;;;5079011;28;20529;-87
2023/04/23 05:00:50;;;;;;;17.43;15.77;;;13.30;1.00;;;;;;5078975;28;20454;-87
2023/04/23 05:03:17;;;;;;;16.17;14.67;;;13.40;1.00;;;;;;5078875;28;20983;-87
2023/04/23 05:05:47;;;;;;;16.73;15.13;;;13.60;1.00;;;;;;5078028;28;20506;-87
2023/04/23 05:08:15;;;;;;;17.37;15.47;;;13.30;1.00;;;;;;5078254;28;20452;-86
2023/04/23 05:10:42;;;;;;;17.17;15.47;;;13.30;1.00;;;;;;5078052;28;20818;-87
2023/04/23 05:13:09;;;;;;;18.23;16.50;;;13.30;1.00;;;;;;5078155;28;20505;-87
2023/04/23 05:15:36;;;;;;;16.23;14.63;;;13.30;1.00;;;;;;5078409;28;20441;-87
2023/04/23 05:18:06;;;;;;;16.87;15.17;;;13.20;1.00;;;;;;5089626;28;20448;-86
2023/04/23 05:20:33;;;;;;;16.43;15.00;;;13.20;1.00;;;;;;5099041;28;20501;-87
2023/04/23 05:23:01;;;;;;;16.87;15.07;;;13.30;1.00;;;;;;5088434;28;20487;-88
2023/04/23 05:25:29;;;;;;;17.40;15.60;;;13.20;1.00;;;;;;5084238;28;20453;-87
2023/04/23 05:27:56;;;;;;;18.10;16.20;;;13.30;1.00;;;;;;5097714;28;20467;-87
2023/04/23 05:30:23;;;;;;;20.70;16.33;;;13.40;1.00;;;;;;5097364;28;20470;-87
2023/04/23 05:32:50;;;;;;;17.27;15.47;;;13.30;1.00;;;;;;5098124;28;20485;-89
2023/04/23 05:35:17;;;;;;;16.47;15.00;;;13.40;1.00;;;;;;5087477;28;20955;-87
2023/04/23 05:37:44;;;;;;;15.90;13.83;;;13.30;1.00;;;;;;5079331;28;20524;-87
2023/04/23 05:40:12;;;;;;;16.13;14.43;;;13.50;1.00;;;;;;5079467;28;20460;-87
2023/04/23 05:42:39;;;;;;;16.97;14.73;;;13.70;1.00;;;;;;5078336;28;20456;-88
2023/04/23 05:45:07;;;;;;;16.97;13.83;;;13.60;1.00;;;;;;5078964;28;20911;-87
2023/04/23 05:47:34;;;;;;;19.70;15.33;;;13.70;1.00;;;;;;5078314;28;20484;-87
2023/04/23 05:50:01;;;;;;;15.80;14.10;;;13.70;1.00;;;;;;5077330;28;20456;-87
2023/04/23 05:52:30;;;;;;;19.00;15.27;;;13.80;1.00;;;;;;5076818;28;20830;-88
2023/04/23 05:54:57;;;;;;;14.90;13.10;;;13.80;1.00;;;;;;5077092;28;20461;-87
2023/04/23 05:57:25;;;;;;;14.20;12.40;;;13.80;1.00;;;;;;5077646;28;20449;-87
2023/04/23 05:59:52;;;;;;;13.93;12.60;;;13.70;1.00;;;;;;5078681;28;20540;-87
2023/04/23 06:02:19;;;;;;;14.00;12.63;;;14.50;1.00;;;;;;5077234;28;20532;-87
2023/04/23 06:04:46;;;;;;;13.93;12.40;;;14.10;1.00;;;;;;5077052;28;20472;-89
2023/04/23 06:07:14;;;;;;;12.43;11.20;;;14.00;99.90;;;;;;5077497;28;20453;-89
2023/04/23 06:09:41;;;;;;;12.00;10.77;;;14.00;99.90;;;;;;5078068;28;20449;-88
2023/04/23 06:12:09;;;;;;;11.77;10.57;;;14.10;99.90;;;;;;5077604;28;20483;-88
2023/04/23 06:14:38;;;;;;;16.10;12.07;;;13.80;99.90;;;;;;5077999;28;21061;-89
2023/04/23 06:17:05;;;;;;;12.43;11.13;;;14.20;99.90;;;;;;5078554;28;20999;-88
2023/04/23 06:19:33;;;;;;;11.90;10.63;;;14.20;99.90;;;;;;5080419;28;20520;-88
2023/04/23 06:22:00;;;;;;;12.47;10.90;;;14.40;99.90;;;;;;5082534;28;20437;-89
2023/04/23 06:24:28;;;;;;;13.53;12.13;;;;;;;;;;5084095;28;20473;-88
2023/04/23 06:26:55;;;;;;;10.67;9.73;;;14.40;99.90;;;;;;5080218;28;20511;-88
2023/04/23 06:29:21;;;;;;;11.07;9.97;;;14.30;99.90;;;;;;5078827;28;20453;-88
2023/04/23 06:31:50;;;;;;;11.20;10.10;;;14.40;99.90;;;;;;5078505;28;20485;-88
2023/04/23 06:34:16;;;;;;;15.80;9.80;;;14.40;99.90;;;;;;5079150;28;20487;-91
2023/04/23 06:36:43;;;;;;;10.37;9.37;;;14.40;99.90;;;;;;5083824;28;20472;-88
2023/04/23 06:39:10;;;;;;;10.17;9.13;;;14.40;99.90;;;;;;5085111;28;20873;-90
2023/04/23 06:41:37;;;;;;;10.23;9.30;;;14.40;99.90;;;;;;5085776;28;20449;-90
2023/04/23 06:44:05;;;;;;;10.30;9.30;;;14.40;94.50;;;;;;5087616;28;20495;-89
2023/04/23 06:46:32;;;;;;;9.47;8.63;;;;;;;;;;5097348;28;20429;-88
2023/04/23 06:49:01;;;;;;;10.20;9.13;;;14.50;99.90;;;;;;5093272;28;20449;-90
2023/04/23 06:51:29;;;;;;;10.13;9.13;;;;;;;;;;5081712;28;20464;-89
2023/04/23 06:53:56;;;;;;;11.37;10.00;;;;;;;;;;5078752;28;20996;-91
2023/04/23 06:56:23;;;;;;;9.83;9.03;;;;;;;;;;5079745;28;20612;-91
2023/04/23 06:58:50;;;;;;;11.17;10.13;;;;;;;;;;5079490;28;20456;-89
2023/04/23 07:01:18;;;;;;;10.30;9.40;;;;;;;;;;5081527;28;20486;-89
2023/04/23 07:03:47;;;;;;;11.73;9.67;;;;;;;;;;5081063;28;20465;-89
2023/04/23 07:06:16;;;;;;;8.90;8.00;;;14.60;99.90;;;;;;5082993;28;20479;-90
2023/04/23 07:08:43;;;;;;;9.03;8.13;;;;;;;;;;5078366;28;20449;-89
2023/04/23 07:11:11;;;;;;;9.53;8.43;;;14.40;99.90;;;;;;5089812;28;20449;-92
2023/04/23 07:13:38;;;;;;;8.23;7.50;;;14.70;99.90;;;;;;5097530;28;20473;-90
2023/04/23 07:16:05;;;;;;;9.00;8.20;;;;;;;;;;5090961;28;20496;-89
2023/04/23 07:18:33;;;;;;;8.53;7.70;;;;;;;;;;5082273;28;20940;-90
2023/04/23 07:21:00;;;;;;;10.90;8.60;;;14.20;99.90;;;;;;5081509;28;20549;-90
2023/04/23 07:23:30;;;;;;;9.00;7.67;;;13.90;1.00;;;;;;5081451;28;20525;-89
2023/04/23 07:25:58;;;;;;;11.63;10.47;;;;;;;;;;5080914;28;20548;-88
2023/04/23 07:28:25;;;;;;;11.13;9.97;;;;;;;;;;5078721;28;20445;-89
2023/04/23 07:30:52;;;;;;;11.63;10.43;;;;;;;;;;5083836;28;20818;-88
2023/04/23 07:33:20;;;;;;;13.17;11.10;;;13.70;99.90;;;;;;5101164;28;20473;-88
2023/04/23 07:35:47;;;;;;;10.87;9.67;;;13.60;99.90;;;;;;5095648;28;20453;-88
2023/04/23 07:38:14;;;;;;;11.37;10.27;;;13.60;99.90;;;;;;5081953;28;20544;-88
2023/04/23 07:40:42;;;;;;;13.23;11.50;;;13.50;99.90;;;;;;5082418;28;20445;-86
2023/04/23 07:43:09;;;;;;;14.80;11.40;;;13.30;99.90;;;;;;5081674;28;20447;-87
2023/04/23 07:45:37;;;;;;;16.07;12.07;;;13.60;99.90;;;;;;5081155;28;20506;-88
2023/04/23 07:48:04;;;;;;;14.53;12.80;;;13.50;99.90;;;;;;5081177;28;20491;-88
2023/04/23 07:50:31;;;;;;;15.17;12.40;;;13.50;99.90;;;;;;5081183;28;20446;-88
2023/04/23 07:52:58;;;;;;;14.30;12.77;;;13.50;99.90;;;;;;5081536;28;20563;-88
2023/04/23 07:55:25;;;;;;;14.87;13.37;;;13.70;99.90;;;;;;5082701;28;20457;-90
2023/04/23 07:57:53;;;;;;;19.27;14.00;;;13.20;99.90;;;;;;5083342;28;20533;-90
2023/04/23 08:00:20;;;;;;;16.70;13.17;;;13.70;99.90;;;;;;5086287;28;20421;-90
2023/04/23 08:02:50;;;;;;;16.37;13.47;;;13.60;99.90;;;;;;5082028;28;20522;-87
2023/04/23 08:05:17;;;;;;;18.70;13.53;;;13.50;99.90;;;;;;5083802;28;20452;-86
2023/04/23 08:07:51;;;;;;;13.80;12.40;;;13.60;99.90;;;;;;5088741;28;20956;-91
2023/04/23 08:10:18;;;;;;;14.60;12.40;;;13.80;99.90;;;;;;5082449;28;20452;-88
2023/04/23 08:12:45;;;;;;;16.30;14.43;;;13.60;99.90;;;;;;5083050;28;20473;-86
2023/04/23 08:15:14;;;;;;;14.67;12.43;;;13.50;99.90;;;;;;5093291;22;20493;-80
2023/04/23 08:17:41;;;;;;;14.40;12.10;;;13.50;99.90;;;;;;5080719;28;20860;-80
2023/04/23 08:20:08;;;;;;;14.50;13.03;;;13.40;99.90;;;;;;5081160;28;20445;-80
2023/04/23 08:22:35;;;;;;;12.50;11.20;;;13.40;99.90;;;;;;5080975;28;20455;-81
2023/04/23 08:25:03;;;;;;;13.90;12.20;;;13.40;99.90;;;;;;5080174;28;20467;-80
2023/04/23 08:27:30;;;;;;;12.73;11.53;;;13.40;99.90;;;;;;5082528;28;20441;-80
2023/04/23 08:29:57;;;;;;;16.03;11.80;;;13.50;99.90;;;;;;5081246;28;20532;-80
2023/04/23 08:32:25;;;;;;;13.10;11.80;;;13.60;99.90;;;;;;5089193;28;20437;-79
2023/04/23 08:34:52;;;;;;;16.10;11.53;;;13.60;99.90;;;;;;5093016;28;20519;-80
2023/04/23 08:37:19;;;;;;;14.60;13.00;;;13.80;99.90;;;;;;5093325;28;20457;-79
2023/04/23 08:39:45;;;;;;;12.40;11.10;;;13.90;99.90;;;;;;5087226;28;20445;-77
2023/04/23 08:42:18;;;;;;;13.60;11.90;;;14.00;99.90;;;;;;5080992;28;20503;-78
2023/04/23 08:44:47;;;;;;;14.73;11.50;;;14.10;99.90;;;;;;5083526;28;20480;-81
2023/04/23 08:47:17;;;;;;;14.80;12.50;;;14.50;99.90;;;;;;5097765;28;20445;-81
2023/04/23 08:49:46;;;;;;;11.63;10.53;;;14.20;99.90;;;;;;5096526;28;20472;-80
2023/04/23 08:52:17;;;;;;;11.87;10.70;;;14.50;99.90;;;;;;5094678;28;20971;-81
2023/04/23 08:54:49;;;;;;;12.53;10.87;;;14.70;99.90;;;;;;5092702;28;20502;-80
2023/04/23 08:57:17;;;;;;;11.50;10.30;;;14.80;99.90;;;;;;5087935;28;20464;-81
2023/04/23 08:59:45;;;;;;;11.80;10.60;;;14.60;99.90;;;;;;5090225;28;20444;-80
2023/04/23 09:02:13;;;;;;;11.60;10.40;;;14.50;99.90;;;;;;5090867;28;20556;-81
2023/04/23 09:04:41;;;;;;;10.47;9.57;;;14.70;99.90;;;;;;5086590;28;20462;-81
2023/04/23 09:07:10;;;;;;;13.23;11.93;;;14.70;99.90;;;;;;5085826;28;20469;-82
2023/04/23 09:09:38;;;;;;;12.03;10.70;;;14.80;99.90;;;;;;5085078;28;20487;-81
2023/04/23 09:12:06;;;;;;;11.93;10.00;;;14.70;99.90;;;;;;5083542;28;20446;-82
2023/04/23 09:14:33;;;;;;;13.10;10.27;;;14.60;99.90;;;;;;5081236;28;20488;-81
2023/04/23 09:17:02;;;;;;;14.00;9.67;;;14.60;99.90;;;;;;5082925;28;20484;-81
2023/04/23 09:19:29;;;;;;;12.30;9.40;;;14.50;99.90;;;;;;5082143;28;20475;-81
2023/04/23 09:21:57;;;;;;;10.60;9.70;;;14.50;99.90;;;;;;5082722;28;20862;-81
2023/04/23 09:24:25;;;;;;;11.80;10.07;;;14.40;99.90;;;;;;5081639;28;20499;-81
2023/04/23 09:26:53;;;;;;;12.40;11.30;;;14.30;99.90;;;;;;5079576;28;20451;-81
2023/04/23 09:29:22;;;;;;;11.10;10.00;;;14.30;99.90;;;;;;5079860;28;20475;-81
2023/04/23 09:31:51;;;;;;;11.20;9.80;;;14.20;99.90;;;;;;5079626;28;21073;-81
2023/04/23 09:34:18;;;;;;;14.20;9.67;;;14.30;99.90;;;;;;5079033;28;20484;-80
2023/04/23 09:36:46;;;;;;;10.60;9.50;;;14.10;99.90;;;;;;5082817;28;20643;-81
2023/04/23 09:39:14;;;;;;;11.10;9.77;;;13.60;99.90;;;;;;5082968;28;20481;-82
2023/04/23 09:41:42;;;;;;;11.10;9.73;;;13.90;99.90;;;;;;5081928;28;20954;-82
2023/04/23 09:44:09;;;;;;;9.83;7.67;;;14.10;99.90;;;;;;5085287;28;20464;-81
2023/04/23 09:46:37;;;;;;;7.60;7.00;;;14.00;99.90;;;;;;5086943;28;20444;-81
2023/04/23 09:49:06;;;;;;;19.57;13.60;;;14.00;99.90;;;;;;5079214;28;20471;-82
2023/04/23 09:51:35;;;;;;;6.57;5.97;;;13.80;99.90;;;;;;5079201;28;20840;-81
2023/04/23 09:54:03;;;;;;;7.43;6.23;;;13.80;99.90;;;;;;5078647;28;20511;-81
2023/04/23 09:56:32;;;;;;;7.07;6.47;;;13.80;99.90;;;;;;5079683;28;20453;-81
2023/04/23 09:59:01;;;;;;;5.50;5.00;;;13.70;99.90;;;;;;5080458;28;20544;-82
2023/04/23 10:01:29;;;;;;;5.83;5.00;;;13.70;99.90;;;;;;5088412;28;20505;-82
2023/04/23 10:03:56;;;;;;;6.00;5.50;;;13.70;99.90;;;;;;5096183;28;20471;-81
2023/04/23 10:06:30;;;;;;;5.87;5.27;;;13.70;99.90;;;;;;5095012;28;20493;-80
2023/04/23 10:08:57;;;;;;;5.80;5.30;;;13.60;99.90;;;;;;5081751;28;20501;-81
2023/04/23 10:11:25;;;;;;;5.90;4.90;;;13.90;99.90;;;;;;5081877;28;20473;-80
2023/04/23 10:13:54;;;;;;;5.73;5.20;;;13.40;99.90;;;;;;5082206;28;20496;-81
2023/04/23 10:16:23;;;;;;;5.43;4.93;;;13.50;99.90;;;;;;5084526;28;20430;-82
2023/04/23 10:18:54;;;;;;;4.70;4.30;;;13.40;99.90;;;;;;5083516;28;20821;-80
2023/04/23 10:21:27;;;;;;;5.30;4.80;;;13.50;99.90;;;;;;5080231;28;20460;-80
2023/04/23 10:23:56;;;;;;;4.70;4.30;;;13.40;99.90;;;;;;5080220;28;20461;-81
2023/04/23 10:26:25;;;;;;;5.80;5.30;;;13.30;99.90;;;;;;5080105;28;20548;-81
2023/04/23 10:28:54;;;;;;;5.00;4.60;;;12.90;99.90;;;;;;5093903;28;20445;-81
2023/04/23 10:31:24;;;;;;;7.87;6.27;;;12.80;99.90;;;;;;5090526;28;20919;-81
2023/04/23 10:33:51;;;;;;;8.20;7.40;;;12.90;99.90;;;;;;5080693;28;20496;-81
2023/04/23 10:36:18;;;;;;;7.70;6.53;;;13.00;99.90;;;;;;5086396;28;20464;-81
2023/04/23 10:38:46;;;;;;;9.83;8.50;;;13.20;99.90;;;;;;5090490;28;20445;-81
2023/04/23 10:41:17;;;;;;;10.23;9.23;;;13.20;99.90;;;;;;5089984;28;20936;-81
2023/04/23 10:43:43;;;;;;;13.43;10.13;;;13.10;99.90;;;;;;5090911;28;20533;-81
2023/04/23 10:46:30;;;;;;;10.43;9.30;;;13.20;99.90;;;;;;5092870;28;20453;-81
2023/04/23 10:49:07;;;;;;;11.50;10.30;;;13.50;99.90;;;;;;5092505;28;20456;-81
2023/04/23 10:51:34;;;;;;;9.63;8.50;;;13.50;99.90;;;;;;5088022;28;20441;-81
2023/04/23 10:54:03;;;;;;;11.47;8.37;;;13.70;59.60;;;;;;5083931;28;20560;-79
2023/04/23 10:56:30;;;;;;;8.37;7.60;;;13.80;77.90;;;;;;5084101;28;20532;-79
2023/04/23 10:58:57;;;;;;;8.60;7.47;;;14.00;1.00;;;;;;5081926;28;21035;-80
2023/04/23 11:01:25;;;;;;;9.40;8.10;;;14.10;1.00;;;;;;5077528;28;20536;-79
2023/04/23 11:03:53;;;;;;;8.53;7.63;;;14.30;1.00;;;;;;5077076;28;20531;-79
2023/04/23 11:06:58;;;;;;;13.07;9.50;;;14.40;99.90;;;;;;5081382;28;21035;-79
2023/04/23 11:09:46;;;;;;;10.27;9.13;;;14.30;99.90;;;;;;5082150;28;20460;-79
2023/04/23 11:12:30;;;;;;;12.10;10.67;;;14.50;99.90;;;;;;5076937;28;20457;-79
2023/04/23 11:14:59;;;;;;;11.50;10.30;;;14.70;99.90;;;;;;5079779;28;20492;-78
2023/04/23 11:18:01;;;;;;;11.53;10.33;;;14.90;94.10;;;;;;5081966;28;20455;-79
2023/04/23 11:20:29;;;;;;;12.23;10.50;;;14.90;1.00;;;;;;5082611;28;20467;-79
2023/04/23 11:22:57;;;;;;;15.17;11.30;;;14.90;99.90;;;;;;5081533;28;20453;-79
2023/04/23 11:25:25;;;;;;;11.70;10.10;;;14.60;99.90;;;;;;5087681;28;20461;-79
2023/04/23 11:27:54;;;;;;;12.77;10.67;;;14.70;1.00;;;;;;5088984;28;20460;-79
2023/04/23 11:30:24;;;;;;;11.37;9.67;;;15.20;1.00;;;;;;5085785;28;20468;-79
2023/04/23 11:32:52;;;;;;;10.77;9.63;;;15.10;1.00;;;;;;5080426;28;20912;-79
2023/04/23 11:35:23;;;;;;;9.23;8.37;;;15.10;1.00;;;;;;5079687;28;20516;-79
2023/04/23 11:37:50;;;;;;;9.83;8.60;;;15.20;1.00;;;;;;5086025;28;20782;-79
2023/04/23 11:40:20;;;;;;;8.13;7.33;;;15.20;1.00;;;;;;5086229;28;20445;-79
2023/04/23 11:42:48;;;;;;;8.40;7.47;;;15.40;99.90;;;;;;5078691;28;20532;-79
2023/04/23 11:45:16;;;;;;;10.00;8.10;;;15.20;80.10;;;;;;5084299;28;20465;-78
2023/04/23 11:47:44;;;;;;;8.83;8.03;;;15.10;99.90;;;;;;5084219;28;20477;-78
2023/04/23 11:50:16;;;;;;;8.77;7.70;;;15.30;99.90;;;;;;5081119;28;20574;-78
2023/04/23 11:52:43;;;;;;;11.20;9.40;;;15.30;1.00;;;;;;5085609;28;20940;-78
2023/04/23 11:55:10;;;;;;;8.13;7.30;;;15.70;1.00;;;;;;5084005;28;20480;-78
2023/04/23 11:57:41;;;;;;;8.30;7.50;;;15.70;99.90;;;;;;5085447;28;20445;-79
2023/04/23 12:00:14;;;;;;;10.60;7.30;;;15.60;1.00;;;;;;5082026;28;20433;-79
2023/04/23 12:02:50;;;;;;;8.07;7.37;;;15.40;1.00;;;;;;5080868;28;20951;-79
2023/04/23 12:05:20;;;;;;;10.33;8.57;;;15.40;1.00;;;;;;5085527;28;20833;-79
2023/04/23 12:07:49;;;;;;;10.20;8.20;;;15.20;99.90;;;;;;5088256;28;20484;-79
2023/04/23 12:10:18;;;;;;;9.47;8.57;;;15.30;99.90;;;;;;5088421;28;20445;-78
2023/04/23 12:12:50;;;;;;;11.70;9.53;;;15.30;1.00;;;;;;5086310;28;20449;-78
2023/04/23 12:15:17;;;;;;;8.50;7.40;;;15.50;1.00;;;;;;5086602;28;20546;-79
2023/04/23 12:17:48;;;;;;;15.20;7.07;;;15.60;1.00;;;;;;5085771;28;20445;-79
2023/04/23 12:20:18;;;;;;;8.70;6.93;;;15.60;1.00;;;;;;5082730;28;20459;-78
2023/04/23 12:22:44;;;;;;;6.50;5.90;;;15.40;99.90;;;;;;5078960;28;20532;-78
2023/04/23 12:25:11;;;;;;;5.23;4.70;;;15.60;99.90;;;;;;5077198;28;20469;-79
2023/04/23 12:27:41;;;;;;;4.63;4.23;;;15.70;99.30;;;;;;5078811;28;20455;-79
2023/04/23 12:30:11;;;;;;;7.23;6.47;;;15.80;33.90;;;;;;5079116;28;20815;-78
2023/04/23 12:32:38;;;;;;;5.13;4.67;;;16.00;99.90;;;;;;5078173;28;20436;-78
2023/04/23 12:35:06;;;;;;;5.23;4.70;;;15.90;5.80;;;;;;5078802;28;20832;-79
2023/04/23 12:37:36;;;;;;;2.97;2.77;;;15.90;49.20;;;;;;5079814;28;20453;-78
2023/04/23 12:40:06;;;;;;;2.77;2.57;;;16.20;1.00;;;;;;5081373;28;20433;-78
2023/04/23 12:42:33;;;;;;;5.73;3.90;;;16.00;1.00;;;;;;5077936;28;20488;-78